sensor_id;sensor_type;location;lat;lon;timestamp;temperature;humidity
14786;DHT22;7484;49.906;9.058;2022-07-24T00:01:57;20.70;99.90
14786;DHT22;7484;49.906;9.058;2022-07-24T00:04:24;20.70;99.90
14786;DHT22;7484;49.906;9.058;2022-07-24T00:06:51;20.70;99.90
14786;DHT22;7484;49.906;9.058;2022-07-24T00:09:18;20.60;99.90
14786;DHT22;7484;49.906;9.058;2022-07-24T00:11:44;20.70;99.90
14786;DHT22;7484;49.906;9.058;2022-07-24T00:14:12;20.70;99.90
14786;DHT22;7484;49.906;9.058;2022-07-24T00:16:39;20.80;99.90
14786;DHT22;7484;49.906;9.058;2022-07-24T00:19:07;21.00;99.90
14786;DHT22;7484;49.906;9.058;2022-07-24T00:21:34;20.90;99.90
14786;DHT22;7484;49.906;9.058;2022-07-24T00:24:01;20.70;99.90
14786;DHT22;7484;49.906;9.058;2022-07-24T00:26:28;20.30;99.90
14786;DHT22;7484;49.906;9.058;2022-07-24T00:28:55;20.00;99.90
14786;DHT22;7484;49.906;9.058;2022-07-24T00:31:23;19.90;99.90
14786;DHT22;7484;49.906;9.058;2022-07-24T00:33:50;19.60;99.90
14786;DHT22;7484;49.906;9.058;2022-07-24T00:36:16;19.50;99.90
14786;DHT22;7484;49.906;9.058;2022-07-24T00:38:43;19.50;99.90
14786;DHT22;7484;49.906;9.058;2022-07-24T00:41:10;19.80;99.90
14786;DHT22;7484;49.906;9.058;2022-07-24T00:43:58;20.00;99.90
14786;DHT22;7484;49.906;9.058;2022-07-24T00:46:26;20.00;99.90
14786;DHT22;7484;49.906;9.058;2022-07-24T00:48:53;19.80;99.90
14786;DHT22;7484;49.906;9.058;2022-07-24T00:51:20;19.50;99.90
14786;DHT22;7484;49.906;9.058;2022-07-24T00:53:47;19.20;99.90
14786;DHT22;7484;49.906;9.058;2022-07-24T00:56:14;19.30;99.90
14786;DHT22;7484;49.906;9.058;2022-07-24T00:58:41;19.50;99.90
14786;DHT22;7484;49.906;9.058;2022-07-24T01:01:07;19.50;99.90
14786;DHT22;7484;49.906;9.058;2022-07-24T01:03:35;19.60;99.90
14786;DHT22;7484;49.906;9.058;2022-07-24T01:06:02;19.60;99.90
14786;DHT22;7484;49.906;9.058;2022-07-24T01:08:29;19.70;99.90
14786;DHT22;7484;49.906;9.058;2022-07-24T01:10:56;19.70;99.90
14786;DHT22;7484;49.906;9.058;2022-07-24T01:13:23;19.80;99.90
14786;DHT22;7484;49.906;9.058;2022-07-24T01:15:50;19.90;99.90
14786;DHT22;7484;49.906;9.058;2022-07-24T01:18:16;19.80;99.90
14786;DHT22;7484;49.906;9.058;2022-07-24T01:20:47;19.80;99.90
14786;DHT22;7484;49.906;9.058;2022-07-24T01:23:14;19.80;99.90
14786;DHT22;7484;49.906;9.058;2022-07-24T01:25:41;19.80;99.90
14786;DHT22;7484;49.906;9.058;2022-07-24T01:28:08;19.80;99.90
14786;DHT22;7484;49.906;9.058;2022-07-24T01:30:35;19.70;99.90
14786;DHT22;7484;49.906;9.058;2022-07-24T01:33:02;19.40;99.90
14786;DHT22;7484;49.906;9.058;2022-07-24T01:35:29;19.20;99.90
14786;DHT22;7484;49.906;9.058;2022-07-24T01:37:57;19.10;99.90
14786;DHT22;7484;49.906;9.058;2022-07-24T01:40:25;19.20;99.90
14786;DHT22;7484;49.906;9.058;2022-07-24T01:42:51;19.40;99.90
14786;DHT22;7484;49.906;9.058;2022-07-24T01:45:18;19.40;99.90
14786;DHT22;7484;49.906;9.058;2022-07-24T01:47:45;19.50;99.90
14786;DHT22;7484;49.906;9.058;2022-07-24T01:50:13;19.30;99.90
14786;DHT22;7484;49.906;9.058;2022-07-24T01:52:40;19.30;99.90
14786;DHT22;7484;49.906;9.058;2022-07-24T01:55:09;19.10;99.90
14786;DHT22;7484;49.906;9.058;2022-07-24T01:57:36;19.10;99.90
14786;DHT22;7484;49.906;9.058;2022-07-24T02:00:04;19.20;99.90
14786;DHT22;7484;49.906;9.058;2022-07-24T02:02:39;19.30;99.90
14786;DHT22;7484;49.906;9.058;2022-07-24T02:05:06;19.40;99.90
14786;DHT22;7484;49.906;9.058;2022-07-24T02:07:33;19.40;99.90
14786;DHT22;7484;49.906;9.058;2022-07-24T02:10:01;19.20;99.90
14786;DHT22;7484;49.906;9.058;2022-07-24T02:12:29;19.10;99.90
14786;DHT22;7484;49.906;9.058;2022-07-24T02:14:56;19.00;99.90
14786;DHT22;7484;49.906;9.058;2022-07-24T02:17:23;19.10;99.90
14786;DHT22;7484;49.906;9.058;2022-07-24T02:19:49;19.30;99.90
14786;DHT22;7484;49.906;9.058;2022-07-24T02:22:16;19.30;99.90
14786;DHT22;7484;49.906;9.058;2022-07-24T02:24:43;19.40;99.90
14786;DHT22;7484;49.906;9.058;2022-07-24T02:27:10;19.30;99.90
14786;DHT22;7484;49.906;9.058;2022-07-24T02:29:38;19.30;99.90
14786;DHT22;7484;49.906;9.058;2022-07-24T02:32:05;19.10;99.90
14786;DHT22;7484;49.906;9.058;2022-07-24T02:34:32;18.90;99.90
14786;DHT22;7484;49.906;9.058;2022-07-24T02:36:59;18.80;99.90
14786;DHT22;7484;49.906;9.058;2022-07-24T02:39:26;18.70;99.90
14786;DHT22;7484;49.906;9.058;2022-07-24T02:41:53;18.60;99.90
14786;DHT22;7484;49.906;9.058;2022-07-24T02:44:19;18.70;99.90
14786;DHT22;7484;49.906;9.058;2022-07-24T02:46:47;18.90;99.90
14786;DHT22;7484;49.906;9.058;2022-07-24T02:49:14;19.10;99.90
14786;DHT22;7484;49.906;9.058;2022-07-24T02:51:41;18.90;99.90
14786;DHT22;7484;49.906;9.058;2022-07-24T02:54:08;18.70;99.90
14786;DHT22;7484;49.906;9.058;2022-07-24T02:56:34;18.70;99.90
14786;DHT22;7484;49.906;9.058;2022-07-24T02:59:01;18.70;99.90
14786;DHT22;7484;49.906;9.058;2022-07-24T03:01:28;18.80;99.90
14786;DHT22;7484;49.906;9.058;2022-07-24T03:03:56;18.90;99.90
14786;DHT22;7484;49.906;9.058;2022-07-24T03:06:23;19.00;99.90
14786;DHT22;7484;49.906;9.058;2022-07-24T03:08:49;19.10;99.90
14786;DHT22;7484;49.906;9.058;2022-07-24T03:11:16;19.00;99.90
14786;DHT22;7484;49.906;9.058;2022-07-24T03:13:43;18.60;99.90
14786;DHT22;7484;49.906;9.058;2022-07-24T03:16:10;18.60;99.90
14786;DHT22;7484;49.906;9.058;2022-07-24T03:18:36;18.70;99.90
14786;DHT22;7484;49.906;9.058;2022-07-24T03:21:05;18.80;99.90
14786;DHT22;7484;49.906;9.058;2022-07-24T03:23:32;18.90;99.90
14786;DHT22;7484;49.906;9.058;2022-07-24T03:25:58;19.00;99.90
14786;DHT22;7484;49.906;9.058;2022-07-24T03:28:25;18.90;99.90
14786;DHT22;7484;49.906;9.058;2022-07-24T03:30:52;18.60;99.90
14786;DHT22;7484;49.906;9.058;2022-07-24T03:33:19;18.50;99.90
14786;DHT22;7484;49.906;9.058;2022-07-24T03:35:45;18.60;99.90
14786;DHT22;7484;49.906;9.058;2022-07-24T03:38:13;18.60;99.90
14786;DHT22;7484;49.906;9.058;2022-07-24T03:40:40;18.60;99.90
14786;DHT22;7484;49.906;9.058;2022-07-24T03:43:07;18.80;99.90
14786;DHT22;7484;49.906;9.058;2022-07-24T03:45:34;18.90;99.90
14786;DHT22;7484;49.906;9.058;2022-07-24T03:48:01;18.80;99.90
14786;DHT22;7484;49.906;9.058;2022-07-24T03:50:28;18.70;99.90
14786;DHT22;7484;49.906;9.058;2022-07-24T03:52:55;18.50;99.90
14786;DHT22;7484;49.906;9.058;2022-07-24T03:55:23;18.50;99.90
14786;DHT22;7484;49.906;9.058;2022-07-24T03:57:50;18.50;99.90
14786;DHT22;7484;49.906;9.058;2022-07-24T04:00:17;18.30;99.90
14786;DHT22;7484;49.906;9.058;2022-07-24T04:02:44;18.20;99.90
14786;DHT22;7484;49.906;9.058;2022-07-24T04:05:10;18.20;99.90
14786;DHT22;7484;49.906;9.058;2022-07-24T04:07:39;18.20;99.90
14786;DHT22;7484;49.906;9.058;2022-07-24T04:10:08;18.20;99.90
14786;DHT22;7484;49.906;9.058;2022-07-24T04:12:36;18.30;99.90
14786;DHT22;7484;49.906;9.058;2022-07-24T04:15:03;18.40;99.90
14786;DHT22;7484;49.906;9.058;2022-07-24T04:17:30;18.50;99.90
14786;DHT22;7484;49.906;9.058;2022-07-24T04:19:57;18.40;99.90
14786;DHT22;7484;49.906;9.058;2022-07-24T04:22:24;18.50;99.90
14786;DHT22;7484;49.906;9.058;2022-07-24T04:24:51;18.50;99.90
14786;DHT22;7484;49.906;9.058;2022-07-24T04:27:17;18.50;99.90
14786;DHT22;7484;49.906;9.058;2022-07-24T04:29:46;19.50;99.90
14786;DHT22;7484;49.906;9.058;2022-07-24T04:32:12;18.70;99.90
14786;DHT22;7484;49.906;9.058;2022-07-24T04:34:40;18.70;99.90
14786;DHT22;7484;49.906;9.058;2022-07-24T04:37:07;18.70;99.90
14786;DHT22;7484;49.906;9.058;2022-07-24T04:39:34;18.80;99.90
14786;DHT22;7484;49.906;9.058;2022-07-24T04:42:01;18.90;99.90
14786;DHT22;7484;49.906;9.058;2022-07-24T04:44:28;19.10;99.90
14786;DHT22;7484;49.906;9.058;2022-07-24T04:46:56;19.20;99.90
14786;DHT22;7484;49.906;9.058;2022-07-24T04:49:23;19.10;99.90
14786;DHT22;7484;49.906;9.058;2022-07-24T04:51:49;19.00;99.90
14786;DHT22;7484;49.906;9.058;2022-07-24T04:54:16;18.90;99.90
14786;DHT22;7484;49.906;9.058;2022-07-24T04:56:43;18.70;99.90
14786;DHT22;7484;49.906;9.058;2022-07-24T04:59:10;18.60;99.90
14786;DHT22;7484;49.906;9.058;2022-07-24T05:01:36;18.50;99.90
14786;DHT22;7484;49.906;9.058;2022-07-24T05:04:05;18.50;99.90
14786;DHT22;7484;49.906;9.058;2022-07-24T05:06:32;18.60;99.90
14786;DHT22;7484;49.906;9.058;2022-07-24T05:08:59;18.80;99.90
14786;DHT22;7484;49.906;9.058;2022-07-24T05:11:25;19.00;99.90
14786;DHT22;7484;49.906;9.058;2022-07-24T05:13:52;19.20;99.90
14786;DHT22;7484;49.906;9.058;2022-07-24T05:16:19;19.20;99.90
14786;DHT22;7484;49.906;9.058;2022-07-24T05:18:46;19.10;99.90
14786;DHT22;7484;49.906;9.058;2022-07-24T05:21:14;19.20;99.90
14786;DHT22;7484;49.906;9.058;2022-07-24T05:23:41;19.30;99.90
14786;DHT22;7484;49.906;9.058;2022-07-24T05:26:08;19.30;99.90
14786;DHT22;7484;49.906;9.058;2022-07-24T05:28:35;19.30;99.90
14786;DHT22;7484;49.906;9.058;2022-07-24T05:31:02;19.50;99.90
14786;DHT22;7484;49.906;9.058;2022-07-24T05:33:29;19.60;99.90
14786;DHT22;7484;49.906;9.058;2022-07-24T05:35:56;19.70;99.90
14786;DHT22;7484;49.906;9.058;2022-07-24T05:38:24;19.90;99.90
14786;DHT22;7484;49.906;9.058;2022-07-24T05:40:51;20.00;99.90
14786;DHT22;7484;49.906;9.058;2022-07-24T05:43:18;20.10;99.90
14786;DHT22;7484;49.906;9.058;2022-07-24T05:45:45;20.20;99.90
14786;DHT22;7484;49.906;9.058;2022-07-24T05:48:11;20.40;99.90
14786;DHT22;7484;49.906;9.058;2022-07-24T05:50:39;20.50;99.90
14786;DHT22;7484;49.906;9.058;2022-07-24T05:53:06;20.60;99.90
14786;DHT22;7484;49.906;9.058;2022-07-24T05:55:34;20.60;99.90
14786;DHT22;7484;49.906;9.058;2022-07-24T05:58:02;20.80;99.90
14786;DHT22;7484;49.906;9.058;2022-07-24T06:00:29;21.00;99.90
14786;DHT22;7484;49.906;9.058;2022-07-24T06:02:56;21.30;99.90
14786;DHT22;7484;49.906;9.058;2022-07-24T06:05:23;21.50;99.90
14786;DHT22;7484;49.906;9.058;2022-07-24T06:07:49;21.70;99.90
14786;DHT22;7484;49.906;9.058;2022-07-24T06:10:16;21.70;99.90
14786;DHT22;7484;49.906;9.058;2022-07-24T06:12:44;21.90;99.90
14786;DHT22;7484;49.906;9.058;2022-07-24T06:15:12;21.90;99.90
14786;DHT22;7484;49.906;9.058;2022-07-24T06:17:38;22.00;99.90
14786;DHT22;7484;49.906;9.058;2022-07-24T06:20:07;22.10;99.90
14786;DHT22;7484;49.906;9.058;2022-07-24T06:22:34;22.20;99.90
14786;DHT22;7484;49.906;9.058;2022-07-24T06:25:01;22.30;99.90
14786;DHT22;7484;49.906;9.058;2022-07-24T06:27:28;22.50;99.90
14786;DHT22;7484;49.906;9.058;2022-07-24T06:29:56;22.60;99.90
14786;DHT22;7484;49.906;9.058;2022-07-24T06:32:23;22.80;99.90
14786;DHT22;7484;49.906;9.058;2022-07-24T06:34:49;22.90;99.90
14786;DHT22;7484;49.906;9.058;2022-07-24T06:37:16;22.90;99.90
14786;DHT22;7484;49.906;9.058;2022-07-24T06:39:43;23.00;99.90
14786;DHT22;7484;49.906;9.058;2022-07-24T06:42:10;23.00;99.90
14786;DHT22;7484;49.906;9.058;2022-07-24T06:44:36;23.20;99.90
14786;DHT22;7484;49.906;9.058;2022-07-24T06:47:06;23.30;99.90
14786;DHT22;7484;49.906;9.058;2022-07-24T06:49:32;23.40;99.90
14786;DHT22;7484;49.906;9.058;2022-07-24T06:51:59;23.50;99.90
14786;DHT22;7484;49.906;9.058;2022-07-24T06:54:26;23.60;99.90
14786;DHT22;7484;49.906;9.058;2022-07-24T06:56:53;23.70;99.90
14786;DHT22;7484;49.906;9.058;2022-07-24T06:59:20;23.70;99.90
14786;DHT22;7484;49.906;9.058;2022-07-24T07:01:47;23.80;99.90
14786;DHT22;7484;49.906;9.058;2022-07-24T07:04:38;23.90;99.90
14786;DHT22;7484;49.906;9.058;2022-07-24T07:07:07;24.10;99.90
14786;DHT22;7484;49.906;9.058;2022-07-24T07:09:34;24.30;99.90
14786;DHT22;7484;49.906;9.058;2022-07-24T07:12:08;24.50;99.90
14786;DHT22;7484;49.906;9.058;2022-07-24T07:14:36;24.60;99.90
14786;DHT22;7484;49.906;9.058;2022-07-24T07:17:10;24.70;99.90
14786;DHT22;7484;49.906;9.058;2022-07-24T07:20:00;24.70;99.90
14786;DHT22;7484;49.906;9.058;2022-07-24T07:22:26;24.80;99.90
14786;DHT22;7484;49.906;9.058;2022-07-24T07:24:53;24.90;99.90
14786;DHT22;7484;49.906;9.058;2022-07-24T07:27:29;24.90;99.90
14786;DHT22;7484;49.906;9.058;2022-07-24T07:29:56;25.00;99.90
14786;DHT22;7484;49.906;9.058;2022-07-24T07:32:40;25.10;99.90
14786;DHT22;7484;49.906;9.058;2022-07-24T07:35:08;25.30;99.90
14786;DHT22;7484;49.906;9.058;2022-07-24T07:37:35;25.50;99.90
14786;DHT22;7484;49.906;9.058;2022-07-24T07:40:18;25.70;99.90
14786;DHT22;7484;49.906;9.058;2022-07-24T07:42:55;25.80;99.90
14786;DHT22;7484;49.906;9.058;2022-07-24T07:45:22;25.90;99.90
14786;DHT22;7484;49.906;9.058;2022-07-24T07:47:49;25.90;99.90
14786;DHT22;7484;49.906;9.058;2022-07-24T07:50:17;26.00;99.90
14786;DHT22;7484;49.906;9.058;2022-07-24T07:52:44;25.90;99.90
14786;DHT22;7484;49.906;9.058;2022-07-24T07:55:11;26.00;99.90
14786;DHT22;7484;49.906;9.058;2022-07-24T07:57:37;26.00;99.90
14786;DHT22;7484;49.906;9.058;2022-07-24T08:00:07;26.00;99.90
14786;DHT22;7484;49.906;9.058;2022-07-24T08:02:37;26.10;99.90
14786;DHT22;7484;49.906;9.058;2022-07-24T08:05:05;26.00;99.90
14786;DHT22;7484;49.906;9.058;2022-07-24T08:07:33;26.20;99.90
14786;DHT22;7484;49.906;9.058;2022-07-24T08:10:00;26.30;99.90
14786;DHT22;7484;49.906;9.058;2022-07-24T08:12:27;26.40;99.90
14786;DHT22;7484;49.906;9.058;2022-07-24T08:14:54;26.50;99.90
14786;DHT22;7484;49.906;9.058;2022-07-24T08:17:22;26.70;99.90
14786;DHT22;7484;49.906;9.058;2022-07-24T08:19:48;26.80;99.90
14786;DHT22;7484;49.906;9.058;2022-07-24T08:22:15;26.80;99.90
14786;DHT22;7484;49.906;9.058;2022-07-24T08:24:43;26.90;99.90
14786;DHT22;7484;49.906;9.058;2022-07-24T08:27:10;26.90;99.90
14786;DHT22;7484;49.906;9.058;2022-07-24T08:29:37;27.10;99.90
14786;DHT22;7484;49.906;9.058;2022-07-24T08:32:04;27.20;99.90
14786;DHT22;7484;49.906;9.058;2022-07-24T08:34:31;27.40;99.80
14786;DHT22;7484;49.906;9.058;2022-07-24T08:36:58;27.60;99.50
14786;DHT22;7484;49.906;9.058;2022-07-24T08:39:25;27.70;99.00
14786;DHT22;7484;49.906;9.058;2022-07-24T08:41:53;27.90;98.70
14786;DHT22;7484;49.906;9.058;2022-07-24T08:44:20;27.90;98.40
14786;DHT22;7484;49.906;9.058;2022-07-24T08:46:47;28.00;98.30
14786;DHT22;7484;49.906;9.058;2022-07-24T08:49:16;28.20;98.00
14786;DHT22;7484;49.906;9.058;2022-07-24T08:51:43;28.00;97.40
14786;DHT22;7484;49.906;9.058;2022-07-24T08:54:10;27.90;97.80
14786;DHT22;7484;49.906;9.058;2022-07-24T08:56:38;28.10;96.90
14786;DHT22;7484;49.906;9.058;2022-07-24T08:59:15;28.10;96.30
14786;DHT22;7484;49.906;9.058;2022-07-24T09:01:43;27.90;96.40
14786;DHT22;7484;49.906;9.058;2022-07-24T09:04:31;28.10;96.50
14786;DHT22;7484;49.906;9.058;2022-07-24T09:06:59;28.50;95.90
14786;DHT22;7484;49.906;9.058;2022-07-24T09:09:26;28.90;95.60
14786;DHT22;7484;49.906;9.058;2022-07-24T09:12:05;28.90;95.00
14786;DHT22;7484;49.906;9.058;2022-07-24T09:14:36;29.10;94.80
14786;DHT22;7484;49.906;9.058;2022-07-24T09:17:05;29.20;94.30
14786;DHT22;7484;49.906;9.058;2022-07-24T09:19:45;29.30;93.70
14786;DHT22;7484;49.906;9.058;2022-07-24T09:22:17;29.30;93.10
14786;DHT22;7484;49.906;9.058;2022-07-24T09:25:06;29.30;92.90
14786;DHT22;7484;49.906;9.058;2022-07-24T09:27:34;29.30;92.60
14786;DHT22;7484;49.906;9.058;2022-07-24T09:30:05;29.00;92.80
14786;DHT22;7484;49.906;9.058;2022-07-24T09:32:32;29.10;93.00
14786;DHT22;7484;49.906;9.058;2022-07-24T09:34:59;29.20;92.20
14786;DHT22;7484;49.906;9.058;2022-07-24T09:37:27;29.20;91.90
14786;DHT22;7484;49.906;9.058;2022-07-24T09:40:06;29.40;91.80
14786;DHT22;7484;49.906;9.058;2022-07-24T09:42:33;29.50;91.10
14786;DHT22;7484;49.906;9.058;2022-07-24T09:45:08;29.50;91.00
14786;DHT22;7484;49.906;9.058;2022-07-24T09:47:38;29.60;91.30
14786;DHT22;7484;49.906;9.058;2022-07-24T09:50:15;29.70;90.80
14786;DHT22;7484;49.906;9.058;2022-07-24T09:52:42;29.80;90.40
14786;DHT22;7484;49.906;9.058;2022-07-24T09:55:20;29.90;90.40
14786;DHT22;7484;49.906;9.058;2022-07-24T09:57:48;30.00;89.40
14786;DHT22;7484;49.906;9.058;2022-07-24T10:00:17;30.10;89.20
14786;DHT22;7484;49.906;9.058;2022-07-24T10:02:46;30.20;88.40
14786;DHT22;7484;49.906;9.058;2022-07-24T10:05:13;30.40;88.00
14786;DHT22;7484;49.906;9.058;2022-07-24T10:07:41;30.60;86.20
14786;DHT22;7484;49.906;9.058;2022-07-24T10:10:09;30.60;86.90
14786;DHT22;7484;49.906;9.058;2022-07-24T10:12:37;30.80;87.10
14786;DHT22;7484;49.906;9.058;2022-07-24T10:15:05;31.00;84.70
14786;DHT22;7484;49.906;9.058;2022-07-24T10:20:37;31.10;84.50
14786;DHT22;7484;49.906;9.058;2022-07-24T10:23:06;31.20;83.50
14786;DHT22;7484;49.906;9.058;2022-07-24T10:25:47;31.00;83.80
14786;DHT22;7484;49.906;9.058;2022-07-24T10:28:35;31.00;83.40
14786;DHT22;7484;49.906;9.058;2022-07-24T10:31:04;31.00;84.10
14786;DHT22;7484;49.906;9.058;2022-07-24T10:33:35;31.20;82.70
14786;DHT22;7484;49.906;9.058;2022-07-24T10:36:06;31.40;83.00
14786;DHT22;7484;49.906;9.058;2022-07-24T10:38:37;31.40;80.70
14786;DHT22;7484;49.906;9.058;2022-07-24T10:41:10;31.40;80.40
14786;DHT22;7484;49.906;9.058;2022-07-24T10:43:40;31.60;80.90
14786;DHT22;7484;49.906;9.058;2022-07-24T10:46:11;31.70;80.40
14786;DHT22;7484;49.906;9.058;2022-07-24T10:48:40;31.70;79.40
14786;DHT22;7484;49.906;9.058;2022-07-24T10:51:10;30.70;80.10
14786;DHT22;7484;49.906;9.058;2022-07-24T10:53:52;30.60;81.40
14786;DHT22;7484;49.906;9.058;2022-07-24T10:56:21;30.50;81.60
14786;DHT22;7484;49.906;9.058;2022-07-24T10:58:57;30.70;81.40
14786;DHT22;7484;49.906;9.058;2022-07-24T11:01:33;31.10;80.30
14786;DHT22;7484;49.906;9.058;2022-07-24T11:04:04;31.60;79.80
14786;DHT22;7484;49.906;9.058;2022-07-24T11:06:51;32.00;78.80
14786;DHT22;7484;49.906;9.058;2022-07-24T11:09:19;31.90;78.30
14786;DHT22;7484;49.906;9.058;2022-07-24T11:12:05;32.20;77.90
14786;DHT22;7484;49.906;9.058;2022-07-24T11:14:49;32.40;77.40
14786;DHT22;7484;49.906;9.058;2022-07-24T11:17:39;32.50;77.20
14786;DHT22;7484;49.906;9.058;2022-07-24T11:20:08;32.40;76.60
14786;DHT22;7484;49.906;9.058;2022-07-24T11:22:42;32.00;76.20
14786;DHT22;7484;49.906;9.058;2022-07-24T11:25:12;31.70;76.80
14786;DHT22;7484;49.906;9.058;2022-07-24T11:27:45;31.50;78.10
14786;DHT22;7484;49.906;9.058;2022-07-24T11:30:13;31.30;77.70
14786;DHT22;7484;49.906;9.058;2022-07-24T11:32:41;31.30;78.30
14786;DHT22;7484;49.906;9.058;2022-07-24T11:35:10;31.20;78.20
14786;DHT22;7484;49.906;9.058;2022-07-24T11:37:39;31.10;78.70
14786;DHT22;7484;49.906;9.058;2022-07-24T11:40:07;31.10;78.90
14786;DHT22;7484;49.906;9.058;2022-07-24T11:42:35;31.30;78.60
14786;DHT22;7484;49.906;9.058;2022-07-24T11:45:04;31.60;77.10
14786;DHT22;7484;49.906;9.058;2022-07-24T11:47:31;31.90;75.80
14786;DHT22;7484;49.906;9.058;2022-07-24T11:49:59;32.10;75.90
14786;DHT22;7484;49.906;9.058;2022-07-24T11:52:31;31.70;75.80
14786;DHT22;7484;49.906;9.058;2022-07-24T11:55:00;31.60;77.20
14786;DHT22;7484;49.906;9.058;2022-07-24T11:57:29;32.00;76.10
14786;DHT22;7484;49.906;9.058;2022-07-24T11:59:56;32.40;75.30
14786;DHT22;7484;49.906;9.058;2022-07-24T12:02:23;32.70;72.90
14786;DHT22;7484;49.906;9.058;2022-07-24T12:04:51;32.90;72.90
14786;DHT22;7484;49.906;9.058;2022-07-24T12:07:22;33.20;72.60
14786;DHT22;7484;49.906;9.058;2022-07-24T12:09:53;33.20;71.70
14786;DHT22;7484;49.906;9.058;2022-07-24T12:12:22;32.80;72.30
14786;DHT22;7484;49.906;9.058;2022-07-24T12:14:52;33.00;72.00
14786;DHT22;7484;49.906;9.058;2022-07-24T12:17:19;33.10;71.40
14786;DHT22;7484;49.906;9.058;2022-07-24T12:19:54;33.30;70.80
14786;DHT22;7484;49.906;9.058;2022-07-24T12:22:22;33.20;70.90
14786;DHT22;7484;49.906;9.058;2022-07-24T12:24:52;33.10;70.60
14786;DHT22;7484;49.906;9.058;2022-07-24T12:27:35;33.20;70.10
14786;DHT22;7484;49.906;9.058;2022-07-24T12:30:15;33.40;68.70
14786;DHT22;7484;49.906;9.058;2022-07-24T12:32:55;33.70;69.20
14786;DHT22;7484;49.906;9.058;2022-07-24T12:35:23;33.60;68.70
14786;DHT22;7484;49.906;9.058;2022-07-24T12:37:51;33.60;68.70
14786;DHT22;7484;49.906;9.058;2022-07-24T12:40:30;33.70;67.80
14786;DHT22;7484;49.906;9.058;2022-07-24T12:42:59;34.00;67.90
14786;DHT22;7484;49.906;9.058;2022-07-24T12:45:27;34.30;67.40
14786;DHT22;7484;49.906;9.058;2022-07-24T12:48:08;34.40;66.40
14786;DHT22;7484;49.906;9.058;2022-07-24T12:50:36;34.40;66.70
14786;DHT22;7484;49.906;9.058;2022-07-24T12:53:04;33.30;67.70
14786;DHT22;7484;49.906;9.058;2022-07-24T12:55:32;33.00;68.70
14786;DHT22;7484;49.906;9.058;2022-07-24T12:58:00;33.00;69.00
14786;DHT22;7484;49.906;9.058;2022-07-24T13:00:28;33.00;68.30
14786;DHT22;7484;49.906;9.058;2022-07-24T13:02:55;33.40;67.90
14786;DHT22;7484;49.906;9.058;2022-07-24T13:05:36;33.60;67.10
14786;DHT22;7484;49.906;9.058;2022-07-24T13:08:03;34.10;65.50
14786;DHT22;7484;49.906;9.058;2022-07-24T13:10:31;34.20;65.30
14786;DHT22;7484;49.906;9.058;2022-07-24T13:12:58;34.50;65.10
14786;DHT22;7484;49.906;9.058;2022-07-24T13:15:25;34.80;64.60
14786;DHT22;7484;49.906;9.058;2022-07-24T13:17:52;35.00;64.10
14786;DHT22;7484;49.906;9.058;2022-07-24T13:20:18;34.50;65.00
14786;DHT22;7484;49.906;9.058;2022-07-24T13:22:45;34.10;65.20
14786;DHT22;7484;49.906;9.058;2022-07-24T13:25:12;34.40;64.80
14786;DHT22;7484;49.906;9.058;2022-07-24T13:27:40;34.60;64.40
14786;DHT22;7484;49.906;9.058;2022-07-24T13:30:08;34.20;63.90
14786;DHT22;7484;49.906;9.058;2022-07-24T13:32:34;34.40;63.90
14786;DHT22;7484;49.906;9.058;2022-07-24T13:35:01;34.80;64.10
14786;DHT22;7484;49.906;9.058;2022-07-24T13:37:28;35.00;63.40
14786;DHT22;7484;49.906;9.058;2022-07-24T13:39:55;35.10;63.00
14786;DHT22;7484;49.906;9.058;2022-07-24T13:42:22;35.00;62.50
14786;DHT22;7484;49.906;9.058;2022-07-24T13:44:50;35.10;63.40
14786;DHT22;7484;49.906;9.058;2022-07-24T13:47:16;35.30;62.20
14786;DHT22;7484;49.906;9.058;2022-07-24T13:49:43;35.30;61.60
14786;DHT22;7484;49.906;9.058;2022-07-24T13:52:10;35.30;61.30
14786;DHT22;7484;49.906;9.058;2022-07-24T13:54:37;35.30;61.70
14786;DHT22;7484;49.906;9.058;2022-07-24T13:57:03;35.00;61.80
14786;DHT22;7484;49.906;9.058;2022-07-24T13:59:30;35.00;61.70
14786;DHT22;7484;49.906;9.058;2022-07-24T14:01:58;35.30;61.20
14786;DHT22;7484;49.906;9.058;2022-07-24T14:04:25;35.40;60.90
14786;DHT22;7484;49.906;9.058;2022-07-24T14:06:53;35.50;61.90
14786;DHT22;7484;49.906;9.058;2022-07-24T14:09:20;35.70;61.00
14786;DHT22;7484;49.906;9.058;2022-07-24T14:11:47;36.00;60.90
14786;DHT22;7484;49.906;9.058;2022-07-24T14:14:14;36.00;60.90
14786;DHT22;7484;49.906;9.058;2022-07-24T14:16:41;36.00;60.10
14786;DHT22;7484;49.906;9.058;2022-07-24T14:19:09;36.10;60.00
14786;DHT22;7484;49.906;9.058;2022-07-24T14:21:36;36.20;59.90
14786;DHT22;7484;49.906;9.058;2022-07-24T14:24:05;36.30;59.40
14786;DHT22;7484;49.906;9.058;2022-07-24T14:26:31;36.10;60.30
14786;DHT22;7484;49.906;9.058;2022-07-24T14:28:58;36.30;59.20
14786;DHT22;7484;49.906;9.058;2022-07-24T14:31:25;36.00;59.40
14786;DHT22;7484;49.906;9.058;2022-07-24T14:33:52;35.90;59.70
14786;DHT22;7484;49.906;9.058;2022-07-24T14:36:20;35.50;60.30
14786;DHT22;7484;49.906;9.058;2022-07-24T14:38:47;35.60;60.10
14786;DHT22;7484;49.906;9.058;2022-07-24T14:41:13;35.00;60.00
14786;DHT22;7484;49.906;9.058;2022-07-24T14:43:40;34.90;59.90
14786;DHT22;7484;49.906;9.058;2022-07-24T14:46:07;34.50;60.80
14786;DHT22;7484;49.906;9.058;2022-07-24T14:48:33;34.60;60.30
14786;DHT22;7484;49.906;9.058;2022-07-24T14:51:00;34.20;61.00
14786;DHT22;7484;49.906;9.058;2022-07-24T14:53:29;33.80;61.50
14786;DHT22;7484;49.906;9.058;2022-07-24T14:55:55;33.80;61.20
14786;DHT22;7484;49.906;9.058;2022-07-24T14:58:22;34.00;62.00
14786;DHT22;7484;49.906;9.058;2022-07-24T15:00:49;34.50;62.30
14786;DHT22;7484;49.906;9.058;2022-07-24T15:03:16;34.80;60.40
14786;DHT22;7484;49.906;9.058;2022-07-24T15:05:43;34.90;60.50
14786;DHT22;7484;49.906;9.058;2022-07-24T15:08:09;35.00;60.10
14786;DHT22;7484;49.906;9.058;2022-07-24T15:10:38;35.40;60.20
14786;DHT22;7484;49.906;9.058;2022-07-24T15:13:05;35.60;58.50
14786;DHT22;7484;49.906;9.058;2022-07-24T15:15:32;35.70;58.00
14786;DHT22;7484;49.906;9.058;2022-07-24T15:17:59;35.80;57.70
14786;DHT22;7484;49.906;9.058;2022-07-24T15:20:26;35.60;58.10
14786;DHT22;7484;49.906;9.058;2022-07-24T15:22:52;35.40;58.40
14786;DHT22;7484;49.906;9.058;2022-07-24T15:25:19;35.40;57.70
14786;DHT22;7484;49.906;9.058;2022-07-24T15:27:48;35.50;57.00
14786;DHT22;7484;49.906;9.058;2022-07-24T15:30:17;35.60;56.20
14786;DHT22;7484;49.906;9.058;2022-07-24T15:32:44;35.60;56.20
14786;DHT22;7484;49.906;9.058;2022-07-24T15:35:11;35.80;57.60
14786;DHT22;7484;49.906;9.058;2022-07-24T15:37:38;35.90;58.00
14786;DHT22;7484;49.906;9.058;2022-07-24T15:40:05;35.80;58.60
14786;DHT22;7484;49.906;9.058;2022-07-24T15:42:33;35.90;58.50
14786;DHT22;7484;49.906;9.058;2022-07-24T15:45:02;35.90;58.10
14786;DHT22;7484;49.906;9.058;2022-07-24T15:47:28;35.80;58.20
14786;DHT22;7484;49.906;9.058;2022-07-24T15:49:55;35.70;58.00
14786;DHT22;7484;49.906;9.058;2022-07-24T15:52:22;35.90;57.70
14786;DHT22;7484;49.906;9.058;2022-07-24T15:54:49;35.90;57.80
14786;DHT22;7484;49.906;9.058;2022-07-24T15:57:16;35.90;58.00